createdAt,value
2017-08-24T00:01:26.667Z,22.44
2017-08-24T00:03:54.502Z,22.43
2017-08-24T00:06:22.132Z,22.43
2017-08-24T00:08:49.661Z,22.41
2017-08-24T00:11:17.244Z,22.41
2017-08-24T00:13:44.834Z,22.39
2017-08-24T00:16:12.343Z,22.39
2017-08-24T00:18:39.905Z,22.33
2017-08-24T00:21:07.401Z,22.36
2017-08-24T00:23:34.966Z,22.36
2017-08-24T00:26:02.517Z,22.33
2017-08-24T00:28:30.039Z,22.33
2017-08-24T00:30:57.557Z,22.33
2017-08-24T00:33:25.131Z,22.32
2017-08-24T00:35:52.673Z,22.31
2017-08-24T00:40:54.099Z,22.28
2017-08-24T00:43:21.689Z,22.26
2017-08-24T00:45:49.239Z,22.26
2017-08-24T00:48:16.755Z,22.22
2017-08-24T00:50:44.296Z,22.25
2017-08-24T00:53:11.811Z,22.24
2017-08-24T00:55:39.342Z,22.21
2017-08-24T00:58:06.846Z,22.20
2017-08-24T01:00:34.395Z,22.21
2017-08-24T01:03:01.994Z,22.18
2017-08-24T01:05:29.508Z,22.26
2017-08-24T01:07:57.009Z,22.24
2017-08-24T01:10:24.564Z,22.19
2017-08-24T01:12:52.401Z,22.21
2017-08-24T01:15:19.927Z,22.19
2017-08-24T01:17:47.441Z,22.18
2017-08-24T01:20:15.005Z,22.16
2017-08-24T01:22:42.540Z,22.11
2017-08-24T01:25:10.053Z,22.10
2017-08-24T01:27:37.632Z,22.07
2017-08-24T01:30:05.143Z,22.04
2017-08-24T01:32:32.685Z,22.01
2017-08-24T01:35:00.244Z,22.00
2017-08-24T01:37:27.755Z,21.92
2017-08-24T01:39:55.322Z,21.89
2017-08-24T01:42:22.928Z,21.89
2017-08-24T01:44:50.537Z,21.79
2017-08-24T01:47:18.073Z,21.80
2017-08-24T01:49:45.698Z,21.84
2017-08-24T01:52:13.258Z,21.84
2017-08-24T01:54:40.809Z,21.80
2017-08-24T01:57:08.335Z,21.82
2017-08-24T01:59:35.833Z,21.80
2017-08-24T02:02:03.388Z,21.79
2017-08-24T02:04:30.892Z,21.77
2017-08-24T02:06:58.400Z,21.73
2017-08-24T02:09:25.937Z,21.79
2017-08-24T02:11:53.433Z,21.79
2017-08-24T02:14:20.985Z,21.78
2017-08-24T02:16:48.490Z,21.77
2017-08-24T02:19:16.092Z,21.77
2017-08-24T02:21:43.639Z,21.77
2017-08-24T02:24:11.129Z,21.77
2017-08-24T02:26:38.666Z,21.74
2017-08-24T02:29:06.223Z,21.72
2017-08-24T02:31:33.759Z,21.61
2017-08-24T02:34:01.345Z,21.68
2017-08-24T02:36:28.907Z,21.69
2017-08-24T02:38:56.466Z,21.70
2017-08-24T02:41:24.089Z,21.70
2017-08-24T02:43:51.656Z,21.70
2017-08-24T02:46:19.220Z,21.65
2017-08-24T02:48:46.771Z,21.63
2017-08-24T02:51:14.330Z,21.60
2017-08-24T02:53:41.890Z,21.58
2017-08-24T02:56:09.405Z,21.58
2017-08-24T02:58:36.914Z,21.54
2017-08-24T03:01:04.453Z,21.57
2017-08-24T03:03:31.956Z,21.55
2017-08-24T03:05:59.489Z,21.52
2017-08-24T03:08:27.166Z,21.54
2017-08-24T03:10:54.713Z,21.46
2017-08-24T03:13:22.251Z,21.54
2017-08-24T03:15:49.806Z,21.51
2017-08-24T03:18:17.325Z,21.47
2017-08-24T03:20:44.989Z,21.45
2017-08-24T03:23:12.505Z,21.46
2017-08-24T03:25:40.233Z,21.44
2017-08-24T03:28:07.782Z,21.45
2017-08-24T03:30:35.287Z,21.46
2017-08-24T03:33:02.849Z,21.40
2017-08-24T03:35:30.369Z,21.45
2017-08-24T03:37:57.886Z,21.45
2017-08-24T03:40:25.457Z,21.44
2017-08-24T03:42:52.972Z,21.45
2017-08-24T03:45:20.559Z,21.45
2017-08-24T03:47:48.068Z,21.46
2017-08-24T03:50:15.631Z,21.49
2017-08-24T03:52:43.213Z,21.51
2017-08-24T03:55:10.757Z,21.52
2017-08-24T03:57:38.285Z,21.56
2017-08-24T04:00:05.830Z,21.60
2017-08-24T04:02:33.419Z,21.63
2017-08-24T04:05:01.207Z,21.66
2017-08-24T04:07:28.750Z,21.83
2017-08-24T04:09:56.380Z,21.98
2017-08-24T04:12:23.885Z,21.97
2017-08-24T04:14:51.505Z,21.96
2017-08-24T04:17:19.297Z,22.20
2017-08-24T04:19:46.839Z,22.26
2017-08-24T04:22:14.575Z,22.24
2017-08-24T04:24:42.255Z,22.31
2017-08-24T04:27:09.769Z,22.36
2017-08-24T04:29:37.275Z,22.39
2017-08-24T04:32:04.837Z,22.47
2017-08-24T04:34:32.366Z,22.44
2017-08-24T04:36:59.924Z,22.55
2017-08-24T04:39:27.462Z,22.61
2017-08-24T04:41:55.086Z,22.57
2017-08-24T04:44:23.000Z,22.52
2017-08-24T04:46:50.520Z,22.56
2017-08-24T04:49:18.105Z,22.57
2017-08-24T04:51:45.766Z,22.67
2017-08-24T04:54:13.293Z,22.64
2017-08-24T04:56:40.899Z,22.64
2017-08-24T04:59:08.460Z,22.67
2017-08-24T05:01:36.015Z,22.67
2017-08-24T05:04:03.549Z,22.58
2017-08-24T05:06:31.061Z,22.69
2017-08-24T05:08:58.644Z,22.70
2017-08-24T05:11:26.186Z,22.73
2017-08-24T05:13:53.708Z,22.72
2017-08-24T05:16:21.350Z,22.73
2017-08-24T05:18:48.881Z,22.79
2017-08-24T05:21:16.699Z,22.79
2017-08-24T05:23:44.355Z,22.84
2017-08-24T05:26:11.917Z,22.84
2017-08-24T05:28:39.497Z,22.90
2017-08-24T05:31:07.097Z,22.90
2017-08-24T05:33:34.675Z,22.93
2017-08-24T05:36:02.209Z,22.95
2017-08-24T05:38:29.807Z,22.99
2017-08-24T05:40:57.816Z,23.00
2017-08-24T05:43:25.422Z,23.03
2017-08-24T05:45:53.029Z,23.05
2017-08-24T05:48:20.555Z,23.08
2017-08-24T05:50:48.133Z,23.12
2017-08-24T05:53:16.541Z,23.13
2017-08-24T05:55:44.752Z,23.13
2017-08-24T05:58:13.659Z,23.08
2017-08-24T06:00:41.315Z,23.08
2017-08-24T06:03:09.529Z,23.03
2017-08-24T06:05:37.304Z,23.08
2017-08-24T06:08:05.204Z,23.08
2017-08-24T06:10:35.661Z,23.10
2017-08-24T06:13:03.519Z,23.13
2017-08-24T06:15:31.292Z,23.15
2017-08-24T06:28:36.851Z,23.24
2017-08-24T06:31:05.337Z,23.17
2017-08-24T06:33:36.745Z,23.39
2017-08-24T06:39:25.273Z,23.28
2017-08-24T06:41:53.094Z,23.31
2017-08-24T06:44:28.590Z,23.45
2017-08-24T06:47:01.998Z,23.36
2017-08-24T06:49:29.576Z,23.34
2017-08-24T06:52:30.550Z,23.50
2017-08-24T06:55:03.751Z,23.38
2017-08-24T06:57:33.105Z,23.40
2017-08-24T07:16:50.577Z,23.75
2017-08-24T07:20:01.195Z,23.75
2017-08-24T07:23:00.366Z,23.89
2017-08-24T07:26:01.292Z,23.78
2017-08-24T07:29:00.877Z,23.81
2017-08-24T07:31:59.756Z,23.95
2017-08-24T07:37:48.719Z,23.96
2017-08-24T07:40:48.052Z,24.00
2017-08-24T07:43:50.037Z,23.87
2017-08-24T07:46:49.074Z,23.98
2017-08-24T07:49:47.011Z,23.93
2017-08-24T07:52:44.818Z,23.94
2017-08-24T07:55:15.820Z,24.06
2017-08-24T07:57:45.084Z,24.06
2017-08-24T08:00:13.895Z,24.04
2017-08-24T08:02:44.432Z,24.15
2017-08-24T08:05:13.907Z,24.07
2017-08-24T08:07:42.397Z,24.04
2017-08-24T08:10:46.936Z,24.17
2017-08-24T08:17:11.230Z,24.03
2017-08-24T08:19:39.387Z,24.06
2017-08-24T08:22:09.207Z,24.05
2017-08-24T08:24:37.988Z,24.24
2017-08-24T08:27:25.907Z,24.12
2017-08-24T08:29:55.664Z,24.04
2017-08-24T08:32:25.768Z,24.06
2017-08-24T08:34:53.840Z,24.10
2017-08-24T08:37:21.772Z,23.99
2017-08-24T08:39:50.313Z,23.98
2017-08-24T08:42:18.190Z,24.11
2017-08-24T08:44:48.894Z,24.13
2017-08-24T08:47:17.604Z,24.07
2017-08-24T08:49:46.131Z,23.96
2017-08-24T08:52:14.138Z,23.96
2017-08-24T08:54:43.307Z,24.08
2017-08-24T08:57:11.149Z,23.95
2017-08-24T08:59:40.199Z,23.90
2017-08-24T09:02:09.637Z,23.95
2017-08-24T09:04:39.252Z,23.99
2017-08-24T09:07:07.186Z,24.03
2017-08-24T09:09:35.151Z,24.12
2017-08-24T09:12:03.821Z,24.11
2017-08-24T09:14:32.371Z,24.14
2017-08-24T09:17:05.300Z,24.07
2017-08-24T09:19:43.348Z,23.99
2017-08-24T09:22:11.815Z,24.10
2017-08-24T09:24:44.907Z,23.91
2017-08-24T09:27:14.315Z,24.01
2017-08-24T09:29:42.370Z,23.96
2017-08-24T09:32:14.146Z,24.13
2017-08-24T09:34:42.611Z,23.92
2017-08-24T09:37:11.115Z,23.98
2017-08-24T09:39:39.300Z,24.04
2017-08-24T09:42:09.197Z,24.00
2017-08-24T09:44:38.219Z,23.93
2017-08-24T09:47:11.511Z,24.09
2017-08-24T09:49:42.316Z,24.03
2017-08-24T09:52:10.462Z,23.98
2017-08-24T09:54:38.367Z,24.04
2017-08-24T09:57:06.332Z,24.04
2017-08-24T09:59:34.174Z,23.99
2017-08-24T10:02:02.883Z,24.09
2017-08-24T10:04:37.401Z,24.10
2017-08-24T10:07:06.808Z,24.17
2017-08-24T10:09:34.874Z,24.03
2017-08-24T10:12:04.173Z,24.03
2017-08-24T10:14:32.832Z,24.07
2017-08-24T10:17:00.655Z,23.95
2017-08-24T10:19:31.177Z,24.05
2017-08-24T10:21:58.901Z,24.14
2017-08-24T10:24:26.884Z,24.11
2017-08-24T10:26:55.154Z,24.12
2017-08-24T10:29:23.277Z,24.11
2017-08-24T10:31:51.905Z,24.05
2017-08-24T10:34:19.590Z,24.13
2017-08-24T10:36:47.672Z,24.02
2017-08-24T10:39:15.618Z,24.04
2017-08-24T10:41:43.484Z,24.07
2017-08-24T10:44:11.169Z,24.30
2017-08-24T10:46:39.075Z,24.15
2017-08-24T10:49:06.723Z,24.18
2017-08-24T10:51:34.987Z,24.16
2017-08-24T10:54:03.154Z,24.03
2017-08-24T10:56:32.354Z,24.05
2017-08-24T10:59:18.370Z,24.02
2017-08-24T11:02:23.960Z,24.19
2017-08-24T11:05:07.881Z,24.09
2017-08-24T11:11:01.828Z,24.06
2017-08-24T11:13:30.118Z,24.11
2017-08-24T11:15:58.486Z,24.16
2017-08-24T11:18:30.045Z,24.19
2017-08-24T11:24:38.095Z,24.13
2017-08-24T11:30:10.717Z,24.24
2017-08-24T11:32:38.547Z,24.37
2017-08-24T11:35:07.426Z,24.36
2017-08-24T11:38:03.619Z,24.25
2017-08-24T11:40:31.447Z,24.27
2017-08-24T11:42:59.366Z,24.33
2017-08-24T11:45:29.474Z,24.20
2017-08-24T11:47:59.178Z,24.32
2017-08-24T11:50:31.077Z,24.20
2017-08-24T11:53:18.090Z,24.29
2017-08-24T11:55:51.875Z,24.21
2017-08-24T11:58:32.506Z,24.32
2017-08-24T12:01:05.056Z,24.35
2017-08-24T12:03:33.551Z,24.27
2017-08-24T12:06:01.174Z,24.30
2017-08-24T12:08:32.152Z,24.24
2017-08-24T12:11:02.281Z,24.31
2017-08-24T12:13:30.031Z,24.30
2017-08-24T12:15:58.933Z,24.34
2017-08-24T12:18:26.711Z,24.41
2017-08-24T12:21:01.791Z,24.33
2017-08-24T12:23:30.939Z,24.44
2017-08-24T12:25:59.031Z,24.34
2017-08-24T12:28:28.188Z,24.39
2017-08-24T12:31:08.441Z,24.43
2017-08-24T12:33:37.797Z,24.34
2017-08-24T12:36:07.255Z,24.37
2017-08-24T12:38:36.891Z,24.40
2017-08-24T12:41:06.142Z,24.45
2017-08-24T12:43:34.340Z,24.44
2017-08-24T12:46:11.253Z,24.47
2017-08-24T12:48:42.824Z,24.39
2017-08-24T12:51:13.554Z,24.40
2017-08-24T12:53:50.694Z,24.35
2017-08-24T12:59:48.005Z,24.44
2017-08-24T13:02:31.451Z,24.60
2017-08-24T13:05:33.478Z,24.56
2017-08-24T13:08:02.486Z,24.48
2017-08-24T13:21:39.928Z,24.15
2017-08-24T13:24:36.064Z,24.19
2017-08-24T13:27:13.789Z,24.16
2017-08-24T13:29:53.957Z,24.14
2017-08-24T13:32:52.523Z,24.15
2017-08-24T13:35:41.464Z,24.11
2017-08-24T13:38:41.441Z,24.09
2017-08-24T13:43:58.386Z,24.07
2017-08-24T13:46:32.514Z,24.07
2017-08-24T13:52:04.224Z,23.98
2017-08-24T13:54:46.771Z,24.01
2017-08-24T13:57:20.131Z,23.94
2017-08-24T13:59:56.562Z,23.97
2017-08-24T14:02:24.724Z,24.08
2017-08-24T14:04:56.425Z,24.05
2017-08-24T14:07:24.512Z,24.12
2017-08-24T14:10:03.327Z,24.15
2017-08-24T14:12:31.060Z,24.23
2017-08-24T14:14:58.674Z,24.14
2017-08-24T14:17:27.253Z,24.15
2017-08-24T14:20:00.106Z,24.21
2017-08-24T14:22:28.095Z,24.32
2017-08-24T14:24:55.971Z,24.26
2017-08-24T14:27:23.713Z,24.23
2017-08-24T14:29:55.825Z,24.37
2017-08-24T14:32:23.392Z,24.33
2017-08-24T14:34:51.013Z,24.27
2017-08-24T14:37:19.037Z,24.16
2017-08-24T14:39:49.869Z,24.23
2017-08-24T14:42:17.619Z,24.30
2017-08-24T14:44:45.347Z,24.22
2017-08-24T14:47:13.053Z,24.24
2017-08-24T14:49:40.759Z,24.44
2017-08-24T14:52:12.112Z,24.32
2017-08-24T14:54:40.805Z,24.38
2017-08-24T14:57:08.473Z,24.30
2017-08-24T14:59:36.351Z,24.23
2017-08-24T15:02:03.932Z,24.26
2017-08-24T15:04:31.616Z,24.26
2017-08-24T15:06:59.324Z,24.25
2017-08-24T15:09:27.750Z,24.31
2017-08-24T15:11:56.345Z,24.35
2017-08-24T15:14:24.147Z,24.46
2017-08-24T15:16:51.871Z,24.37
2017-08-24T15:19:19.598Z,24.27
2017-08-24T15:21:48.887Z,24.31
2017-08-24T15:24:17.110Z,24.25
2017-08-24T15:26:44.942Z,24.36
2017-08-24T15:29:12.521Z,24.33
2017-08-24T15:31:41.864Z,24.49
2017-08-24T15:34:10.303Z,24.56
2017-08-24T15:36:38.599Z,24.63
2017-08-24T15:39:09.439Z,24.68
2017-08-24T15:41:37.170Z,24.70
2017-08-24T15:44:04.858Z,24.70
2017-08-24T15:46:32.516Z,24.70
2017-08-24T15:49:00.266Z,24.72
2017-08-24T15:51:28.139Z,24.71
2017-08-24T15:53:55.776Z,24.66
2017-08-24T15:56:23.670Z,24.70
2017-08-24T15:58:51.361Z,24.69
2017-08-24T16:01:19.070Z,24.67
2017-08-24T16:03:47.107Z,24.64
2017-08-24T16:06:14.793Z,24.58
2017-08-24T16:08:42.668Z,24.63
2017-08-24T16:11:10.226Z,24.70
2017-08-24T16:13:37.756Z,24.64
2017-08-24T16:16:05.310Z,24.66
2017-08-24T16:18:32.912Z,24.66
2017-08-24T16:21:01.253Z,24.68
2017-08-24T16:23:28.893Z,24.66
2017-08-24T16:25:56.481Z,24.59
2017-08-24T16:28:23.984Z,24.57
2017-08-24T16:30:51.544Z,24.65
2017-08-24T16:33:19.347Z,24.60
2017-08-24T16:35:46.936Z,24.59
2017-08-24T16:38:14.565Z,24.62
2017-08-24T16:40:42.205Z,24.57
2017-08-24T16:43:09.753Z,24.61
2017-08-24T16:45:37.311Z,24.50
2017-08-24T16:48:04.965Z,24.58
2017-08-24T16:50:32.506Z,24.55
2017-08-24T16:53:00.092Z,24.56
2017-08-24T16:55:27.677Z,24.58
2017-08-24T16:57:55.274Z,24.55
2017-08-24T17:00:22.952Z,24.45
2017-08-24T17:02:50.476Z,24.55
2017-08-24T17:05:18.084Z,24.49
2017-08-24T17:07:45.618Z,24.50
2017-08-24T17:10:13.142Z,24.54
2017-08-24T17:12:40.687Z,24.55
2017-08-24T17:15:08.189Z,24.58
2017-08-24T17:17:35.728Z,24.60
2017-08-24T17:20:03.294Z,24.57
2017-08-24T17:22:30.933Z,24.62
2017-08-24T17:24:58.520Z,24.68
2017-08-24T17:27:26.033Z,24.65
2017-08-24T17:29:53.590Z,24.67
2017-08-24T17:32:21.150Z,24.71
2017-08-24T17:34:48.658Z,24.68
2017-08-24T17:37:16.229Z,24.73
2017-08-24T17:39:43.831Z,24.69
2017-08-24T17:42:11.331Z,24.72
2017-08-24T17:44:38.893Z,24.73
2017-08-24T17:47:06.404Z,24.73
2017-08-24T17:49:33.909Z,24.75
2017-08-24T17:52:01.457Z,24.74
2017-08-24T17:54:28.974Z,24.74
2017-08-24T17:56:56.481Z,24.75
2017-08-24T17:59:24.026Z,24.74
2017-08-24T18:01:51.534Z,24.75
2017-08-24T18:04:19.062Z,24.75
2017-08-24T18:06:46.613Z,24.74
2017-08-24T18:09:14.190Z,24.80
2017-08-24T18:11:41.690Z,24.79
2017-08-24T18:14:09.238Z,24.79
2017-08-24T18:16:36.745Z,24.81
2017-08-24T18:19:04.321Z,24.80
2017-08-24T18:21:31.864Z,24.77
2017-08-24T18:23:59.405Z,24.81
2017-08-24T18:26:26.914Z,24.81
2017-08-24T18:28:54.505Z,24.81
2017-08-24T18:31:22.042Z,24.75
2017-08-24T18:33:49.567Z,24.78
2017-08-24T18:36:17.108Z,24.79
2017-08-24T18:38:44.614Z,24.80
2017-08-24T18:41:12.179Z,24.81
2017-08-24T18:43:50.333Z,24.79
2017-08-24T18:46:17.897Z,24.77
2017-08-24T18:48:45.456Z,24.79
2017-08-24T18:51:13.005Z,24.77
2017-08-24T18:53:40.542Z,24.79
2017-08-24T18:56:08.059Z,24.77
2017-08-24T18:58:35.606Z,24.79
2017-08-24T19:01:03.157Z,24.78
2017-08-24T19:03:30.661Z,24.78
2017-08-24T19:05:58.226Z,24.78
2017-08-24T19:08:25.739Z,24.77
2017-08-24T19:10:53.282Z,24.77
2017-08-24T19:13:20.863Z,24.74
2017-08-24T19:15:48.374Z,24.76
2017-08-24T19:18:15.931Z,24.76
2017-08-24T19:20:43.437Z,24.77
2017-08-24T19:23:10.934Z,24.75
2017-08-24T19:25:38.478Z,24.75
2017-08-24T19:28:05.981Z,24.75
2017-08-24T19:30:33.489Z,24.75
2017-08-24T19:33:01.048Z,24.76
2017-08-24T19:35:28.582Z,24.75
2017-08-24T19:37:56.089Z,24.75
2017-08-24T19:40:23.658Z,24.74
2017-08-24T19:42:51.209Z,24.75
2017-08-24T19:45:18.756Z,24.73
2017-08-24T19:47:46.308Z,24.74
2017-08-24T19:50:13.810Z,24.72
2017-08-24T19:52:41.384Z,24.71
2017-08-24T19:55:08.897Z,24.67
2017-08-24T19:57:36.407Z,24.63
2017-08-24T20:00:03.950Z,24.58
2017-08-24T20:02:31.461Z,24.55
2017-08-24T20:04:59.015Z,24.50
2017-08-24T20:07:26.559Z,24.48
2017-08-24T20:09:54.108Z,24.44
2017-08-24T20:12:21.617Z,24.38
2017-08-24T20:14:49.162Z,24.30
2017-08-24T20:17:16.674Z,24.31
2017-08-24T20:19:44.219Z,24.29
2017-08-24T20:22:11.761Z,24.23
2017-08-24T20:24:39.295Z,24.18
2017-08-24T20:27:06.849Z,24.18
2017-08-24T20:29:34.384Z,24.17
2017-08-24T20:32:01.916Z,24.15
2017-08-24T20:34:29.461Z,24.13
2017-08-24T20:36:56.963Z,24.10
2017-08-24T20:39:24.528Z,24.06
2017-08-24T20:41:52.033Z,24.01
2017-08-24T20:44:19.529Z,23.99
2017-08-24T20:46:47.067Z,23.98
2017-08-24T20:49:14.610Z,23.93
2017-08-24T20:51:42.120Z,23.91
2017-08-24T20:54:09.653Z,23.89
2017-08-24T20:56:37.189Z,23.85
2017-08-24T20:59:04.725Z,23.83
2017-08-24T21:01:32.266Z,23.78
2017-08-24T21:03:59.860Z,23.79
2017-08-24T21:06:27.369Z,23.71
2017-08-24T21:08:54.918Z,23.73
2017-08-24T21:11:22.426Z,23.71
2017-08-24T21:13:49.982Z,23.70
2017-08-24T21:16:17.481Z,23.62
2017-08-24T21:18:45.073Z,23.64
2017-08-24T21:21:12.588Z,23.63
2017-08-24T21:23:40.096Z,23.59
2017-08-24T21:26:07.639Z,23.58
2017-08-24T21:28:35.144Z,23.58
2017-08-24T21:31:02.687Z,23.55
2017-08-24T21:33:30.229Z,23.52
2017-08-24T21:35:57.754Z,23.51
2017-08-24T21:38:25.270Z,23.49
2017-08-24T21:40:52.809Z,23.48
2017-08-24T21:43:20.341Z,23.46
2017-08-24T21:45:47.905Z,23.44
2017-08-24T21:48:15.477Z,23.42
2017-08-24T21:50:42.982Z,23.39
2017-08-24T21:53:10.484Z,23.40
2017-08-24T21:55:38.061Z,23.37
2017-08-24T21:58:05.562Z,23.37
2017-08-24T22:00:33.067Z,23.36
2017-08-24T22:03:00.617Z,23.31
2017-08-24T22:05:28.167Z,23.33
2017-08-24T22:07:55.662Z,23.30
2017-08-24T22:10:23.232Z,23.29
2017-08-24T22:12:50.736Z,23.27
2017-08-24T22:15:18.299Z,23.25
2017-08-24T22:17:46.139Z,23.21
2017-08-24T22:20:13.676Z,23.20
2017-08-24T22:22:41.191Z,23.20
2017-08-24T22:25:08.730Z,23.20
2017-08-24T22:27:36.233Z,23.19
2017-08-24T22:30:03.794Z,23.17
2017-08-24T22:32:31.300Z,23.14
2017-08-24T22:34:58.801Z,23.08
2017-08-24T22:37:26.347Z,23.11
2017-08-24T22:39:53.856Z,23.10
2017-08-24T22:42:21.426Z,23.09
2017-08-24T22:44:48.937Z,23.09
2017-08-24T22:47:16.456Z,23.07
2017-08-24T22:49:44.006Z,23.05
2017-08-24T22:52:11.509Z,23.05
2017-08-24T22:54:39.023Z,23.03
2017-08-24T22:57:06.573Z,23.03
2017-08-24T22:59:34.083Z,22.98
2017-08-24T23:02:01.642Z,23.00
2017-08-24T23:04:29.162Z,22.98
2017-08-24T23:06:56.682Z,22.96
2017-08-24T23:09:24.233Z,22.95
2017-08-24T23:11:51.735Z,22.92
2017-08-24T23:14:19.269Z,22.93
2017-08-24T23:16:46.809Z,22.93
2017-08-24T23:19:14.315Z,22.89
2017-08-24T23:21:41.857Z,22.89
2017-08-24T23:24:09.355Z,22.87
2017-08-24T23:26:36.892Z,22.87
2017-08-24T23:29:04.425Z,22.82
2017-08-24T23:31:31.983Z,22.84
2017-08-24T23:33:59.489Z,22.82
2017-08-24T23:36:26.981Z,22.82
2017-08-24T23:38:54.527Z,22.81
2017-08-24T23:41:22.087Z,22.78
2017-08-24T23:43:49.665Z,22.73
2017-08-24T23:46:17.161Z,22.75
2017-08-24T23:48:44.733Z,22.75
2017-08-24T23:51:12.285Z,22.75
2017-08-24T23:53:39.782Z,22.72
2017-08-24T23:56:07.290Z,22.68
2017-08-24T23:58:34.869Z,22.69
